Time;durP1;ratioP1;P1;durP2;ratioP2;P2;SDS_P1;SDS_P2;PMS_P1;PMS_P2;Temp;Humidity;BMP_temperature;BMP_pressure;BME280_temperature;BME280_humidity;BME280_pressure;Samples;Min_cycle;Max_cycle;Signal;HPM_P1;HPM_P2
2022/05/24 00:01:22;;;;;;;11.07;7.10;;;;;;;-145.76;100.00;65039.31;4945236;28;20397;-75
2022/05/24 00:03:47;;;;;;;15.88;8.45;;;;;;;-145.76;100.00;65039.31;4929017;28;20065;-75
2022/05/24 00:06:14;;;;;;;10.60;7.13;;;;;;;-145.76;100.00;65039.31;4946478;28;20038;-75
2022/05/24 00:08:39;;;;;;;14.93;7.93;;;;;;;-145.76;100.00;65039.31;4925899;28;20045;-75
2022/05/24 00:11:05;;;;;;;16.48;8.73;;;;;;;-145.76;100.00;65039.31;4946239;28;20247;-75
2022/05/24 00:13:31;;;;;;;11.73;8.23;;;;;;;-145.76;100.00;65039.31;4946599;28;20034;-75
2022/05/24 00:15:57;;;;;;;16.90;8.65;;;;;;;-145.76;100.00;65039.31;4931167;28;20046;-75
2022/05/24 00:18:28;;;;;;;20.10;10.35;;;;;;;-145.76;100.00;65039.31;4947268;28;20042;-75
2022/05/24 00:20:55;;;;;;;15.55;10.07;;;;;;;-145.76;100.00;65039.31;4923689;28;22651;-75
2022/05/24 00:23:24;;;;;;;14.38;9.40;;;;;;;-145.76;100.00;65039.31;4942114;28;20057;-76
2022/05/24 00:25:52;;;;;;;17.63;10.80;;;;;;;-145.76;100.00;65039.31;4925375;28;20033;-75
2022/05/24 00:28:19;;;;;;;14.63;10.77;;;;;;;-145.76;100.00;65039.31;4960115;28;20099;-75
2022/05/24 00:30:47;;;;;;;22.33;10.98;;;;;;;-145.76;100.00;65039.31;4927263;28;20137;-75
2022/05/24 00:33:12;;;;;;;18.02;10.93;;;;;;;-145.76;100.00;65039.31;4945465;28;20038;-75
2022/05/24 00:35:38;;;;;;;18.45;10.13;;;;;;;-145.76;100.00;65039.31;4944695;28;20158;-75
2022/05/24 00:38:04;;;;;;;15.43;10.30;;;;;;;-145.76;100.00;65039.31;4929008;28;20037;-74
2022/05/24 00:40:52;;;;;;;17.88;12.20;;;;;;;-145.76;100.00;65039.31;4942862;28;20041;-75
2022/05/24 00:43:39;;;;;;;18.27;11.13;;;;;;;-145.76;100.00;65039.31;4924601;28;20701;-74
2022/05/24 00:46:28;;;;;;;19.33;11.98;;;;;;;-145.76;100.00;65039.31;4944907;28;20046;-74
2022/05/24 00:49:09;;;;;;;16.70;11.18;;;;;;;-145.76;100.00;65039.31;4931921;28;20034;-71
2022/05/24 00:51:39;;;;;;;17.20;11.82;;;;;;;-145.76;100.00;65039.31;4944252;28;20180;-71
2022/05/24 00:54:05;;;;;;;17.27;13.27;;;;;;;-145.76;100.00;65039.31;4925191;28;22628;-71
2022/05/24 00:56:35;;;;;;;15.98;12.27;;;;;;;-145.76;100.00;65039.31;4942682;28;20045;-72
2022/05/24 00:59:06;;;;;;;16.52;11.57;;;;;;;-145.76;100.00;65039.31;4928783;28;20044;-72
2022/05/24 01:01:38;;;;;;;18.40;10.77;;;;;;;-145.76;100.00;65039.31;4942845;28;20045;-72
2022/05/24 01:04:04;;;;;;;21.40;13.07;;;;;;;-145.76;100.00;65039.31;4927152;28;20490;-71
2022/05/24 01:06:30;;;;;;;20.65;12.32;;;;;;;-145.76;100.00;65039.31;4940162;28;24737;-72
2022/05/24 01:08:59;;;;;;;19.10;11.90;;;;;;;-145.76;100.00;65039.31;4927013;28;20065;-72
2022/05/24 01:11:25;;;;;;;16.77;13.35;;;;;;;-145.76;100.00;65039.31;4923808;28;20058;-71
2022/05/24 01:13:52;;;;;;;16.90;12.60;;;;;;;-145.76;100.00;65039.31;4944047;28;20041;-71
2022/05/24 01:16:17;;;;;;;18.23;13.15;;;;;;;-145.76;100.00;65039.31;4924268;28;20058;-72
2022/05/24 01:18:43;;;;;;;21.58;13.40;;;;;;;-145.76;100.00;65039.31;4941543;28;22969;-72
2022/05/24 01:21:11;;;;;;;22.02;13.13;;;;;;;-145.76;100.00;65039.31;4922986;28;20085;-72
2022/05/24 01:24:02;;;;;;;20.08;14.27;;;;;;;-145.76;100.00;65039.31;4937389;28;20038;-72
2022/05/24 01:26:54;;;;;;;18.58;13.50;;;;;;;-145.76;100.00;65039.31;4927960;28;20080;-73
2022/05/24 01:29:21;;;;;;;19.73;14.45;;;;;;;-145.76;100.00;65039.31;4940017;28;20094;-73
2022/05/24 01:37:17;;;;;;;22.63;15.05;;;;;;;-145.76;100.00;65039.31;4928433;28;20202;-73
2022/05/24 01:39:44;;;;;;;22.33;15.48;;;;;;;-145.76;100.00;65039.31;4940267;28;20057;-73
2022/05/24 01:42:10;;;;;;;26.45;16.65;;;;;;;-145.76;100.00;65039.31;4940114;28;23721;-72
2022/05/24 01:44:48;;;;;;;22.23;17.33;;;;;;;-145.76;100.00;65039.31;4917249;28;20148;-72
2022/05/24 01:47:15;;;;;;;25.48;18.00;;;;;;;-145.76;100.00;65039.31;4942258;28;20061;-72
2022/05/24 01:49:44;;;;;;;26.92;17.63;;;;;;;-145.76;100.00;65039.31;4906678;28;20076;-73
2022/05/24 01:52:17;;;;;;;24.58;18.75;;;;;;;-145.76;100.00;65039.31;4940618;28;20030;-72
2022/05/24 01:54:47;;;;;;;24.42;18.80;;;;;;;-145.76;100.00;65039.31;4924019;28;20502;-73
2022/05/24 01:57:19;;;;;;;27.45;19.58;;;;;;;-145.76;100.00;65039.31;4932449;28;20041;-73
2022/05/24 01:59:47;;;;;;;29.73;18.75;;;;;;;-145.76;100.00;65039.31;4926371;28;20046;-72
2022/05/24 02:02:13;;;;;;;23.92;19.45;;;;;;;-145.76;100.00;65039.31;4937305;28;22900;-73
2022/05/24 02:04:38;;;;;;;27.08;19.15;;;;;;;-145.76;100.00;65039.31;4909031;28;20161;-73
2022/05/24 02:07:13;;;;;;;28.35;19.45;;;;;;;-145.76;100.00;65039.31;4943369;28;20041;-73
2022/05/24 02:09:50;;;;;;;27.63;20.17;;;;;;;-145.76;100.00;65039.31;4944005;28;20141;-73
2022/05/24 02:12:23;;;;;;;29.65;19.17;;;;;;;-145.76;100.00;65039.31;4936537;28;20084;-73
2022/05/24 02:14:53;;;;;;;;;;;;;;;-145.76;100.00;65039.31;4944884;28;20033;-72
2022/05/24 02:17:24;;;;;;;29.17;19.63;;;;;;;-145.76;100.00;65039.31;4927510;28;19932;-72
2022/05/24 02:19:53;;;;;;;32.55;19.77;;;;;;;-145.76;100.00;65039.31;4928462;28;20203;-72
2022/05/24 02:22:21;;;;;;;28.35;19.83;;;;;;;-145.76;100.00;65039.31;4924412;28;20054;-72
2022/05/24 02:24:54;;;;;;;30.50;19.10;;;;;;;-145.76;100.00;65039.31;4922048;28;20050;-72
2022/05/24 02:27:20;;;;;;;;;;;;;;;-145.76;100.00;65039.31;4926967;28;20133;-72
2022/05/24 02:29:45;;;;;;;31.73;19.15;;;;;;;-145.76;100.00;65039.31;4939044;28;19932;-72
2022/05/24 02:32:11;;;;;;;26.88;18.38;;;;;;;-145.76;100.00;65039.31;4933477;28;20092;-72
2022/05/24 02:34:37;;;;;;;29.73;19.65;;;;;;;-145.76;100.00;65039.31;4945898;28;20549;-72
2022/05/24 02:37:03;;;;;;;27.77;18.17;;;;;;;-145.76;100.00;65039.31;4940961;28;20112;-72
2022/05/24 02:39:29;;;;;;;30.08;18.63;;;;;;;-145.76;100.00;65039.31;4944069;28;20034;-72
2022/05/24 02:41:54;;;;;;;26.63;17.10;;;;;;;-145.76;100.00;65039.31;4921514;28;20053;-72
2022/05/24 02:44:19;;;;;;;23.38;16.88;;;;;;;-145.76;100.00;65039.31;4939036;28;20045;-72
2022/05/24 02:46:46;;;;;;;26.88;17.40;;;;;;;-145.76;100.00;65039.31;4911951;28;20080;-72
2022/05/24 02:49:12;;;;;;;31.30;17.58;;;;;;;-145.76;100.00;65039.31;4941427;28;20038;-72
2022/05/24 02:51:39;;;;;;;29.75;18.65;;;;;;;-145.76;100.00;65039.31;4944093;28;20038;-72
2022/05/24 02:54:05;;;;;;;25.50;17.70;;;;;;;-145.76;100.00;65039.31;4926311;28;20049;-73
2022/05/24 02:56:31;;;;;;;27.17;17.80;;;;;;;-145.76;100.00;65039.31;4945107;28;22731;-72
2022/05/24 02:58:56;;;;;;;28.02;19.08;;;;;;;-145.76;100.00;65039.31;4931542;28;20177;-72
2022/05/24 03:01:24;;;;;;;30.13;18.52;;;;;;;-145.76;100.00;65039.31;4944929;28;20033;-72
2022/05/24 03:03:52;;;;;;;27.50;18.80;;;;;;;-145.76;100.00;65039.31;4911094;28;20132;-72
2022/05/24 03:06:18;;;;;;;33.38;20.52;;;;;;;-145.76;100.00;65039.31;4946857;28;20137;-72
2022/05/24 03:11:28;;;;;;;29.85;22.27;;;;;;;-145.76;100.00;65039.31;4944550;28;20092;-72
2022/05/24 03:16:38;;;;;;;31.00;22.55;;;;;;;-145.76;100.00;65039.31;4934878;28;20537;-72
2022/05/24 03:19:03;;;;;;;34.30;24.58;;;;;;;-145.76;100.00;65039.31;4944191;28;20042;-72
2022/05/24 03:21:29;;;;;;;33.28;24.27;;;;;;;-145.76;100.00;65039.31;4927667;28;20037;-72
2022/05/24 03:23:54;;;;;;;35.75;26.08;;;;;;;-145.76;100.00;65039.31;4945754;28;20025;-72
2022/05/24 03:26:20;;;;;;;36.28;26.63;;;;;;;-145.76;100.00;65039.31;4931432;28;20048;-72
2022/05/24 03:28:47;;;;;;;34.30;26.27;;;;;;;-145.76;100.00;65039.31;4946333;28;20474;-72
2022/05/24 03:31:13;;;;;;;39.88;29.42;;;;;;;-145.76;100.00;65039.31;4929391;28;20049;-72
2022/05/24 03:33:38;;;;;;;40.20;29.10;;;;;;;-145.76;100.00;65039.31;4942300;28;20095;-72
2022/05/24 03:36:04;;;;;;;36.03;28.48;;;;;;;-145.76;100.00;65039.31;4940670;28;20128;-72
2022/05/24 03:38:29;;;;;;;36.47;28.75;;;;;;;-145.76;100.00;65039.31;4932402;28;20044;-72
2022/05/24 03:40:55;;;;;;;44.22;30.80;;;;;;;-145.76;100.00;65039.31;4925797;28;20034;-72
2022/05/24 03:43:21;;;;;;;48.72;31.75;;;;;;;-145.76;100.00;65039.31;4930131;28;20033;-72
2022/05/24 03:45:47;;;;;;;43.90;32.03;;;;;;;-145.76;100.00;65039.31;4927055;28;20030;-72
2022/05/24 03:48:13;;;;;;;47.45;32.85;;;;;;;-145.76;100.00;65039.31;4909106;28;20049;-72
2022/05/24 03:50:39;;;;;;;46.85;34.63;;;;;;;-145.76;100.00;65039.31;4946180;28;20134;-73
2022/05/24 03:53:04;;;;;;;48.40;35.33;;;;;;;-145.76;100.00;65039.31;4928270;28;20042;-72
2022/05/24 03:55:30;;;;;;;48.70;35.70;;;;;;;-145.76;100.00;65039.31;4946860;28;20054;-73
2022/05/24 03:58:02;;;;;;;53.17;37.03;;;;;;;-145.76;100.00;65039.31;4945084;28;20034;-72
2022/05/24 04:00:36;;;;;;;51.83;37.58;;;;;;;-145.76;100.00;65039.31;4931260;28;20120;-73
2022/05/24 04:03:03;;;;;;;55.70;40.15;;;;;;;-145.76;100.00;65039.31;4940804;28;20042;-72
2022/05/24 04:05:29;;;;;;;53.50;39.65;;;;;;;-145.76;100.00;65039.31;4924860;28;21083;-74
2022/05/24 04:07:55;;;;;;;58.92;42.42;;;;;;;-145.76;100.00;65039.31;4943482;28;20129;-73
2022/05/24 04:10:21;;;;;;;57.28;43.22;;;;;;;-145.76;100.00;65039.31;4908380;28;20054;-73
2022/05/24 04:12:47;;;;;;;66.50;44.50;;;;;;;-145.76;100.00;65039.31;4940631;28;20637;-73
2022/05/24 04:15:12;;;;;;;64.88;46.42;;;;;;;-145.76;100.00;65039.31;4927825;28;20054;-73
2022/05/24 04:17:38;;;;;;;66.13;46.97;;;;;;;-145.76;100.00;65039.31;4945113;28;20220;-72
2022/05/24 04:20:05;;;;;;;72.32;46.25;;;;;;;-145.76;100.00;65039.31;4945505;28;20037;-73
2022/05/24 04:22:30;;;;;;;74.65;48.30;;;;;;;-145.76;100.00;65039.31;4927285;28;20064;-72
2022/05/24 04:24:56;;;;;;;65.18;46.45;;;;;;;-145.76;100.00;65039.31;4938837;28;21822;-73
2022/05/24 04:27:21;;;;;;;65.50;48.13;;;;;;;-145.76;100.00;65039.31;4921843;28;20100;-73
2022/05/24 04:29:48;;;;;;;62.10;45.50;;;;;;;-145.76;100.00;65039.31;4938471;28;20532;-73
2022/05/24 04:32:13;;;;;;;65.90;47.65;;;;;;;-145.76;100.00;65039.31;4926463;28;20064;-74
2022/05/24 04:34:38;;;;;;;62.25;45.20;;;;;;;-145.76;100.00;65039.31;4942606;28;20076;-73
2022/05/24 04:37:07;;;;;;;63.85;45.65;;;;;;;-145.76;100.00;65039.31;4939351;28;20030;-74
2022/05/24 04:39:33;;;;;;;61.22;45.92;;;;;;;-145.76;100.00;65039.31;4933097;28;20046;-73
2022/05/24 04:44:42;;;;;;;55.63;42.53;;;;;;;-145.76;100.00;65039.31;4927251;28;20088;-73
2022/05/24 04:47:08;;;;;;;54.33;41.25;;;;;;;-145.76;100.00;65039.31;4943368;28;20053;-73
2022/05/24 04:49:37;;;;;;;51.17;39.30;;;;;;;-145.76;100.00;65039.31;4923586;28;20563;-78
2022/05/24 04:52:04;;;;;;;54.95;40.97;;;;;;;-145.76;100.00;65039.31;4929825;28;20529;-77
2022/05/24 04:54:30;;;;;;;54.47;41.35;;;;;;;-145.76;100.00;65039.31;4929055;28;20038;-77
2022/05/24 04:56:56;;;;;;;52.95;40.80;;;;;;;-145.76;100.00;65039.31;4926229;28;20121;-78
2022/05/24 04:59:21;;;;;;;46.40;35.72;;;;;;;-145.76;100.00;65039.31;4901943;28;20030;-78
2022/05/24 05:01:47;;;;;;;44.92;34.53;;;;;;;-145.76;100.00;65039.31;4943853;28;20038;-76
2022/05/24 05:04:12;;;;;;;43.58;33.90;;;;;;;-145.76;100.00;65039.31;4945800;28;20111;-76
2022/05/24 05:06:43;;;;;;;39.78;32.13;;;;;;;-145.76;100.00;65039.31;4931853;28;21373;-77
2022/05/24 05:09:10;;;;;;;49.65;35.05;;;;;;;-145.76;100.00;65039.31;4921559;28;20068;-76
2022/05/24 05:11:35;;;;;;;42.92;32.17;;;;;;;-145.76;100.00;65039.31;4930392;28;20045;-76
2022/05/24 05:14:00;;;;;;;40.13;30.98;;;;;;;-145.76;100.00;65039.31;4956345;28;20084;-77
2022/05/24 05:16:26;;;;;;;43.00;31.85;;;;;;;-145.76;100.00;65039.31;4924706;28;20113;-76
2022/05/24 05:18:52;;;;;;;40.10;30.52;;;;;;;-145.76;100.00;65039.31;4941011;28;21155;-76
2022/05/24 05:21:17;;;;;;;39.38;30.95;;;;;;;-145.76;100.00;65039.31;4944027;28;20045;-77
2022/05/24 05:23:43;;;;;;;35.58;28.85;;;;;;;-145.76;100.00;65039.31;4952034;28;20124;-77
2022/05/24 05:26:08;;;;;;;38.03;31.52;;;;;;;-145.76;100.00;65039.31;4948344;28;20037;-76
2022/05/24 05:28:34;;;;;;;38.88;30.17;;;;;;;-145.76;100.00;65039.31;4952417;28;20057;-76
2022/05/24 05:31:19;;;;;;;35.53;29.70;;;;;;;-145.76;100.00;65039.31;4946315;28;20485;-76
2022/05/24 05:33:47;;;;;;;37.13;28.95;;;;;;;-145.76;100.00;65039.31;4925922;28;20047;-76
2022/05/24 05:36:14;;;;;;;41.75;30.05;;;;;;;-145.76;100.00;65039.31;4945280;28;20224;-76
2022/05/24 05:38:45;;;;;;;40.22;28.88;;;;;;;-145.76;100.00;65039.31;4917918;28;20046;-76
2022/05/24 05:41:11;;;;;;;36.63;28.08;;;;;;;-145.76;100.00;65039.31;4942649;28;20046;-76
2022/05/24 05:43:36;;;;;;;42.10;27.73;;;;;;;-145.76;100.00;65039.31;4927550;28;20089;-76
2022/05/24 05:46:03;;;;;;;39.20;25.45;;;;;;;-145.76;100.00;65039.31;4944804;28;20034;-75
2022/05/24 05:48:29;;;;;;;34.10;27.40;;;;;;;-145.76;100.00;65039.31;4945082;28;20042;-76
2022/05/24 05:50:55;;;;;;;38.20;28.08;;;;;;;-145.76;100.00;65039.31;4927357;28;20050;-76
2022/05/24 05:53:21;;;;;;;36.78;28.10;;;;;;;-145.76;100.00;65039.31;4945511;28;20042;-76
2022/05/24 05:55:46;;;;;;;35.70;29.40;;;;;;;-145.76;100.00;65039.31;4933701;28;20057;-76
2022/05/24 05:58:12;;;;;;;39.17;29.90;;;;;;;-145.76;100.00;65039.31;4954254;28;20045;-76
2022/05/24 06:00:40;;;;;;;44.53;31.55;;;;;;;-145.76;100.00;65039.31;4936134;28;20042;-76
2022/05/24 06:03:05;;;;;;;40.45;30.08;;;;;;;-145.76;100.00;65039.31;4955417;28;20026;-76
2022/05/24 06:05:31;;;;;;;39.80;29.42;;;;;;;-145.76;100.00;65039.31;4938424;28;20179;-77
2022/05/24 06:07:58;;;;;;;37.50;28.05;;;;;;;-145.76;100.00;65039.31;4936480;28;20046;-75
2022/05/24 06:10:24;;;;;;;35.03;28.05;;;;;;;-145.76;100.00;65039.31;4944398;28;20100;-76
2022/05/24 06:12:51;;;;;;;42.55;28.83;;;;;;;-145.76;100.00;65039.31;4926162;28;20042;-76
2022/05/24 06:15:17;;;;;;;33.67;29.20;;;;;;;-145.76;100.00;65039.31;4928903;28;20044;-75
2022/05/24 06:17:48;;;;;;;41.67;28.98;;;;;;;-145.76;100.00;65039.31;4923740;28;20577;-75
2022/05/24 06:20:14;;;;;;;42.15;25.65;;;;;;;-145.76;100.00;65039.31;4945977;28;20627;-74
2022/05/24 06:22:39;;;;;;;31.35;23.75;;;;;;;-145.76;100.00;65039.31;4933042;28;20053;-74
2022/05/24 06:25:05;;;;;;;31.70;22.52;;;;;;;-145.76;100.00;65039.31;4946393;28;20038;-74
2022/05/24 06:27:31;;;;;;;35.08;23.67;;;;;;;-145.76;100.00;65039.31;4923369;28;20038;-76
2022/05/24 06:29:56;;;;;;;30.35;21.40;;;;;;;-145.76;100.00;65039.31;4934500;28;20130;-74
2022/05/24 06:32:22;;;;;;;33.70;23.35;;;;;;;-145.76;100.00;65039.31;4949925;28;20509;-74
2022/05/24 06:34:48;;;;;;;34.45;24.92;;;;;;;-145.76;100.00;65039.31;4935906;28;20046;-74
2022/05/24 06:37:20;;;;;;;32.03;22.60;;;;;;;-145.76;100.00;65039.31;4946504;28;20041;-74
2022/05/24 06:39:46;;;;;;;32.13;22.85;;;;;;;-145.76;100.00;65039.31;4934999;28;20038;-73
2022/05/24 06:42:12;;;;;;;30.05;22.13;;;;;;;-145.76;100.00;65039.31;4949540;28;20078;-74
2022/05/24 06:44:37;;;;;;;29.85;21.30;;;;;;;-145.76;100.00;65039.31;4932861;28;20067;-74
2022/05/24 06:47:03;;;;;;;33.50;21.85;;;;;;;-145.76;100.00;65039.31;4927394;28;20103;-74
2022/05/24 06:49:28;;;;;;;27.02;20.33;;;;;;;-145.76;100.00;65039.31;4942627;28;21356;-74
2022/05/24 06:51:54;;;;;;;30.85;19.80;;;;;;;-145.76;100.00;65039.31;4932500;28;20038;-75
2022/05/24 06:54:19;;;;;;;27.23;18.73;;;;;;;-145.76;100.00;65039.31;4946466;28;20084;-75
2022/05/24 06:56:45;;;;;;;29.27;18.58;;;;;;;-145.76;100.00;65039.31;4932144;28;20034;-74
2022/05/24 07:04:39;;;;;;;27.70;17.42;;;;;;;-145.76;100.00;65039.31;4945816;28;20133;-72
2022/05/24 07:07:05;;;;;;;25.00;16.42;;;;;;;-145.76;100.00;65039.31;4929786;28;20152;-73
2022/05/24 07:09:31;;;;;;;26.38;17.17;;;;;;;-145.76;100.00;65039.31;4944526;28;20212;-74
2022/05/24 07:12:00;;;;;;;22.40;16.15;;;;;;;-145.76;100.00;65039.31;4935866;28;20038;-74
2022/05/24 07:14:26;;;;;;;22.75;16.23;;;;;;;-145.76;100.00;65039.31;4945030;28;20045;-74
2022/05/24 07:16:51;;;;;;;24.13;16.05;;;;;;;-145.76;100.00;65039.31;4947437;28;20084;-73
2022/05/24 07:19:18;;;;;;;27.98;15.55;;;;;;;-145.76;100.00;65039.31;4931131;28;20091;-73
2022/05/24 07:21:44;;;;;;;26.67;15.90;;;;;;;-145.76;100.00;65039.31;4946547;28;20219;-73
2022/05/24 07:24:10;;;;;;;22.80;14.80;;;;;;;-145.76;100.00;65039.31;4933171;28;20049;-73
2022/05/24 07:26:35;;;;;;;23.45;14.77;;;;;;;-145.76;100.00;65039.31;4947905;28;20060;-73
2022/05/24 07:29:01;;;;;;;21.63;15.68;;;;;;;-145.76;100.00;65039.31;4931654;28;20124;-73
2022/05/24 07:31:26;;;;;;;20.42;13.88;;;;;;;-145.76;100.00;65039.31;4946901;28;20049;-74
2022/05/24 07:33:51;;;;;;;22.33;13.18;;;;;;;-145.76;100.00;65039.31;4939860;28;20477;-74
2022/05/24 07:36:17;;;;;;;20.70;14.15;;;;;;;-145.76;100.00;65039.31;4935725;28;20073;-74
2022/05/24 07:38:42;;;;;;;25.75;15.00;;;;;;;-145.76;100.00;65039.31;4949970;28;20065;-74
2022/05/24 07:46:36;;;;;;;23.80;16.67;;;;;;;-145.76;100.00;65039.31;4929306;28;20045;-77
2022/05/24 07:49:01;;;;;;;32.45;18.17;;;;;;;-145.76;100.00;65039.31;4949856;28;20096;-76
2022/05/24 07:51:27;;;;;;;27.83;17.25;;;;;;;-145.76;100.00;65039.31;4910696;28;20050;-75
2022/05/24 07:53:52;;;;;;;27.52;19.00;;;;;;;-145.76;100.00;65039.31;4948151;28;20513;-76
2022/05/24 07:56:19;;;;;;;27.17;18.50;;;;;;;-145.76;100.00;65039.31;4931957;28;20057;-77
2022/05/24 07:58:45;;;;;;;27.17;17.90;;;;;;;-145.76;100.00;65039.31;4953857;28;20072;-78
2022/05/24 08:01:11;;;;;;;21.70;16.42;;;;;;;-145.76;100.00;65039.31;4952238;28;20168;-76
2022/05/24 08:03:38;;;;;;;26.40;15.98;;;;;;;-145.76;100.00;65039.31;4939804;28;20037;-76
2022/05/24 08:06:04;;;;;;;28.45;17.73;;;;;;;-145.76;100.00;65039.31;4967235;28;20046;-77
2022/05/24 08:08:30;;;;;;;30.25;15.90;;;;;;;-145.76;100.00;65039.31;4928016;28;21727;-75
2022/05/24 08:10:56;;;;;;;21.83;15.77;;;;;;;-145.76;100.00;65039.31;4943811;28;20509;-74
2022/05/24 08:13:22;;;;;;;24.15;14.45;;;;;;;-145.76;100.00;65039.31;4932483;28;20049;-75
2022/05/24 08:15:52;;;;;;;24.15;14.90;;;;;;;-145.76;100.00;65039.31;4947457;28;20654;-74
2022/05/24 08:18:18;;;;;;;22.98;13.82;;;;;;;-145.76;100.00;65039.31;4932006;28;20053;-76
2022/05/24 08:20:44;;;;;;;22.42;12.80;;;;;;;-145.76;100.00;65039.31;4947368;28;20132;-75
2022/05/24 08:23:09;;;;;;;22.17;12.85;;;;;;;-145.76;100.00;65039.31;4949495;28;20034;-75
2022/05/24 08:25:35;;;;;;;26.67;12.23;;;;;;;-145.76;100.00;65039.31;4934794;28;20041;-75
2022/05/24 08:28:03;;;;;;;20.30;11.85;;;;;;;-145.76;100.00;65039.31;4950787;28;20049;-72
2022/05/24 08:30:29;;;;;;;23.02;12.88;;;;;;;-145.76;100.00;65039.31;4932997;28;20589;-74
2022/05/24 08:32:56;;;;;;;22.30;11.32;;;;;;;-145.76;100.00;65039.31;4946960;28;20042;-73
2022/05/24 08:35:21;;;;;;;17.25;11.40;;;;;;;-145.76;100.00;65039.31;4930799;28;20168;-74
2022/05/24 08:37:47;;;;;;;17.00;11.20;;;;;;;-145.76;100.00;65039.31;4946719;28;22662;-74
2022/05/24 08:40:16;;;;;;;23.90;11.85;;;;;;;-145.76;100.00;65039.31;4940510;28;23669;-74
2022/05/24 08:42:55;;;;;;;17.63;11.65;;;;;;;-145.76;100.00;65039.31;4937175;28;20046;-75
2022/05/24 08:48:23;;;;;;;16.42;11.70;;;;;;;-145.76;100.00;65039.31;4934201;28;20045;-74
2022/05/24 08:50:52;;;;;;;20.35;11.25;;;;;;;-145.76;100.00;65039.31;4943430;28;20132;-74
2022/05/24 08:53:28;;;;;;;16.65;9.98;;;;;;;-145.76;100.00;65039.31;4932694;28;20430;-75
2022/05/24 08:55:54;;;;;;;18.13;10.00;;;;;;;-145.76;100.00;65039.31;4943866;28;20052;-73
2022/05/24 08:58:35;;;;;;;20.20;9.55;;;;;;;-145.76;100.00;65039.31;4931230;28;20042;-74
2022/05/24 09:01:02;;;;;;;16.45;9.60;;;;;;;-145.76;100.00;65039.31;4952705;28;20650;-75
2022/05/24 09:03:28;;;;;;;17.00;9.52;;;;;;;-145.76;100.00;65039.31;4933346;28;20077;-74
2022/05/24 09:06:32;;;;;;;15.98;9.48;;;;;;;-145.76;100.00;65039.31;4945712;28;20556;-74
2022/05/24 09:09:06;;;;;;;19.05;9.48;;;;;;;-145.76;100.00;65039.31;4934521;28;20045;-73
2022/05/24 09:11:41;;;;;;;17.60;8.90;;;;;;;-145.76;100.00;65039.31;4924965;28;22771;-73
2022/05/24 09:14:29;;;;;;;12.95;7.22;;;;;;;-145.76;100.00;65039.31;4929378;28;20053;-74
2022/05/24 09:17:14;;;;;;;16.60;8.43;;;;;;;-145.76;100.00;65039.31;4943056;28;20037;-74
2022/05/24 09:19:42;;;;;;;14.40;9.25;;;;;;;-145.76;100.00;65039.31;4927785;28;20045;-74
2022/05/24 09:22:10;;;;;;;17.08;8.95;;;;;;;-145.76;100.00;65039.31;4940187;28;20033;-74
2022/05/24 09:24:46;;;;;;;19.52;9.85;;;;;;;-145.76;100.00;65039.31;4928439;28;20053;-74
2022/05/24 09:27:15;;;;;;;15.27;10.68;;;;;;;-145.76;100.00;65039.31;4945875;28;20073;-76
2022/05/24 09:29:58;;;;;;;19.42;11.20;;;;;;;-145.76;100.00;65039.31;4948078;28;20924;-76
2022/05/24 09:32:34;;;;;;;23.25;11.48;;;;;;;-145.76;100.00;65039.31;4936539;28;20103;-75
2022/05/24 09:35:24;;;;;;;21.75;11.20;;;;;;;-145.76;100.00;65039.31;4946492;28;20038;-74
2022/05/24 09:38:04;;;;;;;19.25;10.93;;;;;;;-145.76;100.00;65039.31;4930193;28;20044;-74
2022/05/24 09:40:52;;;;;;;13.07;8.98;;;;;;;-145.76;100.00;65039.31;4944945;28;20100;-71
2022/05/24 09:43:29;;;;;;;15.20;7.40;;;;;;;-145.76;100.00;65039.31;4928081;28;20049;-71
2022/05/24 09:46:14;;;;;;;7.65;5.13;;;;;;;-145.76;100.00;65039.31;4942508;28;20646;-71
2022/05/24 09:48:52;;;;;;;3.28;1.42;;;;;;;-145.76;100.00;65039.31;4936842;28;20038;-71
2022/05/24 09:51:54;;;;;;;2.70;1.25;;;;;;;-145.76;100.00;65039.31;4943057;28;20045;-72
2022/05/24 09:54:27;;;;;;;5.07;1.45;;;;;;;-145.76;100.00;65039.31;4929023;28;20159;-72
2022/05/24 09:57:11;;;;;;;;;;;;;;;-145.76;100.00;65039.31;4940326;28;20053;-72
2022/05/24 09:59:42;;;;;;;3.58;1.20;;;;;;;-145.76;100.00;65039.31;4928879;28;22726;-72
2022/05/24 10:02:28;;;;;;;6.10;1.00;;;;;;;-145.76;100.00;65039.31;4960875;28;20045;-73
2022/05/24 10:04:54;;;;;;;3.08;1.02;;;;;;;-145.76;100.00;65039.31;4911846;28;20362;-73
2022/05/24 10:07:23;;;;;;;3.95;0.85;;;;;;;-145.76;100.00;65039.31;4945986;28;20161;-73
2022/05/24 10:10:09;;;;;;;3.13;1.00;;;;;;;-145.76;100.00;65039.31;4926675;28;20711;-73
2022/05/24 10:13:08;;;;;;;3.92;1.40;;;;;;;-145.76;100.00;65039.31;4944987;28;20520;-73
2022/05/24 10:16:07;;;;;;;4.43;1.13;;;;;;;-145.76;100.00;65039.31;4927834;28;20530;-72
2022/05/24 10:18:51;;;;;;;4.95;1.35;;;;;;;-145.76;100.00;65039.31;4945160;28;20034;-72
2022/05/24 10:21:16;;;;;;;;;;;;;;;-145.76;100.00;65039.31;4928445;28;22544;-71
2022/05/24 10:24:10;;;;;;;3.85;1.40;;;;;;;-145.76;100.00;65039.31;4947859;28;19963;-72
2022/05/24 10:27:02;;;;;;;7.38;2.00;;;;;;;-145.76;100.00;65039.31;4927475;28;20069;-71
2022/05/24 10:29:47;;;;;;;5.00;1.67;;;;;;;-145.76;100.00;65039.31;4947279;28;20042;-72
2022/05/24 10:38:24;;;;;;;7.28;2.25;;;;;;;-145.76;100.00;65039.31;4929919;28;20057;-72
2022/05/24 10:41:04;;;;;;;5.05;2.08;;;;;;;-145.76;100.00;65039.31;4946184;28;20734;-71
2022/05/24 10:43:48;;;;;;;5.88;1.80;;;;;;;-145.76;100.00;65039.31;4933439;28;20050;-72
2022/05/24 10:46:16;;;;;;;6.30;2.40;;;;;;;-145.76;100.00;65039.31;4948350;28;20042;-71
2022/05/24 10:48:54;;;;;;;6.25;2.42;;;;;;;-145.76;100.00;65039.31;4927589;28;20184;-72
2022/05/24 10:51:34;;;;;;;3.30;0.98;;;;;;;-145.76;100.00;65039.31;4942717;28;20145;-72
2022/05/24 10:54:14;;;;;;;6.75;1.20;;;;;;;-145.76;100.00;65039.31;4929600;28;20050;-73
2022/05/24 10:56:50;;;;;;;1.77;0.70;;;;;;;-145.76;100.00;65039.31;4949184;28;20034;-73
2022/05/24 10:59:19;;;;;;;2.03;0.60;;;;;;;-145.76;100.00;65039.31;4932800;28;20800;-71
2022/05/24 11:01:51;;;;;;;1.40;0.65;;;;;;;-145.76;100.00;65039.31;4926518;28;20057;-73
2022/05/24 11:04:22;;;;;;;2.17;0.60;;;;;;;-145.76;100.00;65039.31;4939520;28;20037;-73
2022/05/24 11:06:55;;;;;;;2.50;0.70;;;;;;;-145.76;100.00;65039.31;4944797;28;20042;-75
2022/05/24 11:09:22;;;;;;;4.65;1.05;;;;;;;-145.76;100.00;65039.31;4944339;28;20030;-74
2022/05/24 11:12:10;;;;;;;1.70;0.90;;;;;;;-145.76;100.00;65039.31;4931405;28;20046;-78
2022/05/24 11:14:48;;;;;;;1.92;0.70;;;;;;;-145.76;100.00;65039.31;4944828;28;20498;-77
2022/05/24 11:17:16;;;;;;;3.63;0.68;;;;;;;-145.76;100.00;65039.31;4927375;28;20120;-76
2022/05/24 11:19:49;;;;;;;2.55;0.80;;;;;;;-145.76;100.00;65039.31;4946898;28;20037;-76
2022/05/24 11:22:46;;;;;;;3.08;1.63;;;;;;;-145.76;100.00;65039.31;4932746;28;20141;-75
2022/05/24 11:25:28;;;;;;;3.38;1.10;;;;;;;-145.76;100.00;65039.31;4948824;28;20041;-76
2022/05/24 11:28:00;;;;;;;2.38;0.98;;;;;;;-145.76;100.00;65039.31;4930012;28;20702;-76
2022/05/24 11:30:25;;;;;;;7.75;1.48;;;;;;;-145.76;100.00;65039.31;4947277;28;20184;-76
2022/05/24 11:32:53;;;;;;;4.13;1.02;;;;;;;-145.76;100.00;65039.31;4936295;28;20104;-77
2022/05/24 11:35:18;;;;;;;4.35;1.60;;;;;;;-145.76;100.00;65039.31;4947072;28;20022;-76
2022/05/24 11:37:45;;;;;;;2.72;1.40;;;;;;;-145.76;100.00;65039.31;4941139;28;20049;-75
2022/05/24 11:40:33;;;;;;;3.65;1.58;;;;;;;-145.76;100.00;65039.31;4964606;28;20044;-75
2022/05/24 11:43:10;;;;;;;4.97;2.25;;;;;;;-145.76;100.00;65039.31;4929893;28;20373;-76